Time;durP1;ratioP1;P1;durP2;ratioP2;P2;SDS_P1;SDS_P2;PMS_P1;PMS_P2;Temp;Humidity;BMP_temperature;BMP_pressure;BME280_temperature;BME280_humidity;BME280_pressure;Samples;Min_cycle;Max_cycle;Signal;HPM_P1;HPM_P2
2023/01/18 00:00:36;;;;;;;3.65;2.15;;;0.40;99.90;;;;;;5035808;28;20029;-73
2023/01/18 00:03:02;;;;;;;0.55;0.50;;;0.50;99.90;;;;;;5035828;28;20038;-73
2023/01/18 00:05:28;;;;;;;1.02;1.02;;;0.60;99.90;;;;;;5035650;28;20034;-73
2023/01/18 00:07:54;;;;;;;0.40;0.40;;;0.60;99.90;;;;;;5035861;28;20032;-73
2023/01/18 00:10:21;;;;;;;1.60;1.50;;;0.60;99.90;;;;;;5035840;28;20041;-73
2023/01/18 00:12:48;;;;;;;2.50;2.38;;;0.50;99.90;;;;;;5035637;28;20100;-73
2023/01/18 00:15:13;;;;;;;2.78;2.35;;;0.40;99.90;;;;;;5035315;28;20067;-73
2023/01/18 00:17:51;;;;;;;2.45;2.17;;;0.40;99.90;;;;;;5035918;28;20021;-73
2023/01/18 00:20:20;;;;;;;7.68;3.70;;;0.40;99.90;;;;;;5035301;28;20099;-73
2023/01/18 00:22:46;;;;;;;3.28;2.85;;;0.40;99.90;;;;;;5035519;28;20033;-73
2023/01/18 00:25:12;;;;;;;7.05;3.92;;;0.40;99.90;;;;;;5035319;28;20029;-73
2023/01/18 00:27:39;;;;;;;3.47;3.13;;;0.50;99.90;;;;;;5036030;28;20028;-74
2023/01/18 00:30:07;;;;;;;2.92;2.65;;;0.50;99.90;;;;;;5034082;28;20452;-74
2023/01/18 00:32:33;;;;;;;5.68;2.33;;;0.60;99.90;;;;;;5035506;28;20548;-73
2023/01/18 00:34:59;;;;;;;0.60;0.40;;;0.60;99.90;;;;;;5034912;28;20040;-73
2023/01/18 00:37:28;;;;;;;1.15;1.05;;;0.50;99.90;;;;;;5035179;28;20053;-74
2023/01/18 00:39:53;;;;;;;0.63;0.63;;;0.50;99.90;;;;;;5035264;28;20025;-75
2023/01/18 00:45:04;;;;;;;0.20;0.20;;;0.70;99.90;;;;;;5035324;28;20108;-74
2023/01/18 00:47:29;;;;;;;0.10;0.10;;;0.80;99.90;;;;;;5035021;28;20042;-73
2023/01/18 00:49:55;;;;;;;2.08;0.85;;;0.60;99.90;;;;;;5035085;28;20021;-74
2023/01/18 00:52:21;;;;;;;0.73;0.70;;;0.80;99.90;;;;;;5034850;28;20087;-74
2023/01/18 00:54:46;;;;;;;1.02;1.02;;;0.50;99.90;;;;;;5035073;28;20028;-74
2023/01/18 00:57:12;;;;;;;1.17;0.57;;;0.40;99.90;;;;;;5034804;28;20037;-74
2023/01/18 00:59:38;;;;;;;0.43;0.43;;;0.40;99.90;;;;;;5034347;28;20060;-73
2023/01/18 01:02:04;;;;;;;0.10;0.10;;;0.40;99.90;;;;;;5033780;28;20500;-75
2023/01/18 01:07:14;;;;;;;0.45;0.45;;;0.50;99.90;;;;;;5034681;28;20037;-73
2023/01/18 01:09:39;;;;;;;0.65;0.65;;;0.50;99.90;;;;;;5034712;28;20075;-74
2023/01/18 01:26:11;;;;;;;0.88;0.88;;;0.60;99.90;;;;;;5034378;28;20041;-73
2023/01/18 01:28:42;;;;;;;2.78;2.47;;;0.50;99.90;;;;;;5034401;28;20035;-73
2023/01/18 01:31:13;;;;;;;1.70;1.15;;;0.20;99.90;;;;;;5034152;28;20025;-74
2023/01/18 01:33:39;;;;;;;0.75;0.75;;;-0.10;99.90;;;;;;5034159;28;20498;-74
2023/01/18 01:36:13;;;;;;;0.30;0.30;;;-0.10;99.90;;;;;;5034180;28;20544;-74
2023/01/18 01:38:40;;;;;;;2.53;1.58;;;-0.20;99.90;;;;;;5033990;28;20120;-74
2023/01/18 01:41:15;;;;;;;0.22;0.22;;;0.10;99.90;;;;;;5034114;28;20033;-73
2023/01/18 01:43:55;;;;;;;0.75;0.75;;;0.20;99.90;;;;;;5033958;28;20540;-74
2023/01/18 01:46:47;;;;;;;0.50;0.50;;;0.00;99.90;;;;;;5032229;28;20116;-74
2023/01/18 01:49:22;;;;;;;5.38;2.75;;;-0.20;99.90;;;;;;5028360;28;20455;-74
2023/01/18 01:51:54;;;;;;;0.30;0.30;;;-0.40;99.90;;;;;;5033881;28;20033;-73
2023/01/18 01:54:29;;;;;;;1.60;1.40;;;-0.30;99.90;;;;;;5033901;28;20033;-74
2023/01/18 01:57:04;;;;;;;4.88;2.08;;;-0.30;99.90;;;;;;5033832;28;20163;-73
2023/01/18 01:59:36;;;;;;;0.30;0.30;;;-0.40;99.90;;;;;;5032345;28;20033;-72
2023/01/18 02:02:02;;;;;;;0.60;0.40;;;-0.30;99.90;;;;;;5033522;28;20030;-73
2023/01/18 02:04:28;;;;;;;7.22;1.42;;;-0.30;99.90;;;;;;5033670;28;20112;-73
2023/01/18 02:06:54;;;;;;;0.13;0.13;;;-0.20;99.90;;;;;;5033693;28;20072;-73
2023/01/18 02:09:22;;;;;;;1.90;1.23;;;-0.20;99.90;;;;;;5033600;28;20544;-73
2023/01/18 02:11:51;;;;;;;5.28;1.30;;;-0.30;99.90;;;;;;5033153;28;20363;-73
2023/01/18 02:14:19;;;;;;;1.95;1.85;;;-0.10;99.90;;;;;;5033283;28;20042;-73
2023/01/18 02:17:11;;;;;;;0.52;0.52;;;-0.10;99.90;;;;;;5033250;28;20087;-73
2023/01/18 02:20:06;;;;;;;2.17;1.98;;;-0.20;99.90;;;;;;5033274;28;20037;-73
2023/01/18 02:22:47;;;;;;;5.07;4.78;;;-0.20;99.90;;;;;;5033129;28;20076;-73
2023/01/18 02:25:36;;;;;;;3.25;0.73;;;0.10;99.90;;;;;;5033548;28;20441;-73
2023/01/18 02:28:17;;;;;;;0.85;0.70;;;0.20;99.90;;;;;;5032063;28;20075;-73
2023/01/18 02:30:52;;;;;;;0.25;0.25;;;0.30;99.90;;;;;;5033021;28;20037;-73
2023/01/18 02:33:32;;;;;;;0.10;0.10;;;0.40;99.90;;;;;;5033016;28;20465;-73
2023/01/18 02:36:01;;;;;;;1.10;1.10;;;0.50;99.90;;;;;;5033243;28;20030;-73
2023/01/18 02:38:28;;;;;;;0.63;0.63;;;0.50;99.90;;;;;;5032949;28;20534;-73
2023/01/18 02:41:06;;;;;;;0.55;0.55;;;0.30;99.90;;;;;;5033205;28;20045;-73
2023/01/18 02:46:32;;;;;;;0.20;0.20;;;0.10;99.90;;;;;;5032868;28;20048;-73
2023/01/18 02:49:03;;;;;;;0.52;0.52;;;-0.10;99.90;;;;;;5029438;28;20405;-73
2023/01/18 02:51:29;;;;;;;0.50;0.50;;;-0.10;99.90;;;;;;5019294;28;20359;-73
2023/01/18 02:53:56;;;;;;;0.80;0.80;;;0.00;99.90;;;;;;5032983;28;20030;-73
2023/01/18 02:56:36;;;;;;;4.35;2.40;;;0.10;99.90;;;;;;5031577;28;20465;-73
2023/01/18 02:59:09;;;;;;;9.52;3.42;;;-0.10;99.90;;;;;;5032396;28;20501;-73
2023/01/18 03:01:42;;;;;;;0.20;0.20;;;-0.20;99.90;;;;;;5032920;28;20049;-73
2023/01/18 03:04:20;;;;;;;1.80;1.67;;;-0.20;99.90;;;;;;5033015;28;20022;-73
2023/01/18 03:06:52;;;;;;;0.43;0.43;;;-0.30;99.90;;;;;;5032714;28;20029;-74
2023/01/18 03:09:20;;;;;;;4.18;1.58;;;-0.20;99.90;;;;;;5032617;28;20029;-73
2023/01/18 03:11:46;;;;;;;3.63;2.95;;;-0.30;99.90;;;;;;5032432;28;20120;-73
2023/01/18 03:14:11;;;;;;;2.58;1.88;;;-0.40;99.90;;;;;;5032133;28;20509;-74
2023/01/18 03:17:10;;;;;;;2.53;2.33;;;-0.40;99.90;;;;;;5032528;28;20386;-75
2023/01/18 03:25:43;;;;;;;3.00;2.70;;;-0.50;99.90;;;;;;4982553;28;20097;-72
2023/01/18 03:33:55;;;;;;;0.95;0.68;;;-0.40;99.90;;;;;;5036477;28;20040;-73
2023/01/18 03:36:24;;;;;;;1.75;1.65;;;-0.40;99.90;;;;;;5036461;28;20029;-75
2023/01/18 03:38:56;;;;;;;0.50;0.50;;;-0.40;99.90;;;;;;5035900;28;20017;-74
2023/01/18 03:41:26;;;;;;;0.38;0.38;;;-0.20;99.90;;;;;;5036200;28;20033;-73
2023/01/18 03:43:55;;;;;;;1.33;1.23;;;0.00;99.90;;;;;;5036248;28;20033;-75
2023/01/18 03:46:25;;;;;;;0.28;0.28;;;-0.10;99.90;;;;;;5036461;28;20116;-73
2023/01/18 03:48:51;;;;;;;2.10;1.52;;;-0.10;99.90;;;;;;5036124;28;20056;-74
2023/01/18 03:51:37;;;;;;;0.15;0.15;;;0.10;99.90;;;;;;5036150;28;20025;-74
2023/01/18 03:54:30;;;;;;;2.30;2.03;;;0.20;99.90;;;;;;5028499;28;20037;-75
2023/01/18 03:57:23;;;;;;;0.73;0.68;;;0.40;99.90;;;;;;5035360;28;20041;-73
2023/01/18 03:59:50;;;;;;;0.10;0.10;;;0.30;99.90;;;;;;5027673;28;20040;-73
2023/01/18 04:02:17;;;;;;;0.20;0.20;;;0.20;99.90;;;;;;5034072;28;20424;-73
2023/01/18 04:04:43;;;;;;;0.20;0.20;;;0.30;99.90;;;;;;5035814;28;20028;-73
2023/01/18 04:07:08;;;;;;;0.38;0.38;;;0.40;99.90;;;;;;5034614;28;20095;-73
2023/01/18 04:09:34;;;;;;;1.80;1.70;;;0.30;99.90;;;;;;5035914;28;20018;-73
2023/01/18 04:12:00;;;;;;;0.13;0.13;;;0.10;99.90;;;;;;5034036;28;20026;-73
2023/01/18 04:14:25;;;;;;;0.10;0.10;;;0.10;99.90;;;;;;5035469;28;20036;-74
2023/01/18 04:16:51;;;;;;;0.10;0.10;;;0.10;99.90;;;;;;5034460;28;20060;-73
2023/01/18 04:19:17;;;;;;;0.20;0.20;;;0.30;99.90;;;;;;5034309;28;20111;-72
2023/01/18 04:21:43;;;;;;;0.10;0.10;;;0.20;99.90;;;;;;5035787;28;20029;-73
2023/01/18 04:24:10;;;;;;;0.20;0.20;;;0.10;99.90;;;;;;5035643;28;20083;-74
2023/01/18 04:26:36;;;;;;;0.30;0.30;;;0.00;99.90;;;;;;5035274;28;20034;-74
2023/01/18 04:29:02;;;;;;;0.10;0.10;;;0.10;99.90;;;;;;5035446;28;20025;-73
2023/01/18 04:31:29;;;;;;;1.15;1.08;;;0.00;99.90;;;;;;5035486;28;20023;-73
2023/01/18 04:33:55;;;;;;;0.10;0.10;;;-0.20;99.90;;;;;;5035166;28;20072;-73
2023/01/18 04:36:21;;;;;;;0.70;0.70;;;0.00;99.90;;;;;;5035193;28;20049;-73
2023/01/18 04:38:51;;;;;;;0.30;0.30;;;0.10;99.90;;;;;;5035237;28;20393;-73
2023/01/18 04:41:16;;;;;;;0.20;0.20;;;0.20;99.90;;;;;;5034975;28;20049;-72
2023/01/18 04:43:42;;;;;;;0.25;0.25;;;0.10;99.90;;;;;;5035200;28;20025;-73
2023/01/18 04:46:08;;;;;;;0.32;0.32;;;0.10;99.90;;;;;;5035100;28;20025;-73
2023/01/18 04:48:33;;;;;;;0.20;0.20;;;0.00;99.90;;;;;;5035253;28;20490;-73
2023/01/18 04:50:59;;;;;;;0.63;0.63;;;0.10;99.90;;;;;;5034673;28;20083;-73
2023/01/18 04:53:25;;;;;;;16.80;10.50;;;0.30;99.90;;;;;;5033899;28;20033;-73
2023/01/18 04:55:51;;;;;;;0.30;0.30;;;0.10;99.90;;;;;;5034700;28;20087;-72
2023/01/18 04:58:16;;;;;;;0.20;0.20;;;0.00;99.90;;;;;;5033701;28;20533;-73
2023/01/18 05:00:42;;;;;;;0.20;0.20;;;0.00;99.90;;;;;;5034761;28;20099;-73
2023/01/18 05:03:11;;;;;;;1.35;1.25;;;0.20;99.90;;;;;;5034940;28;20029;-73
2023/01/18 05:05:37;;;;;;;0.10;0.10;;;0.20;99.90;;;;;;5034855;28;20048;-73
2023/01/18 05:08:03;;;;;;;0.22;0.22;;;0.00;99.90;;;;;;5034549;28;20030;-73
2023/01/18 05:10:29;;;;;;;2.85;2.40;;;0.00;99.90;;;;;;5032976;28;20026;-73
2023/01/18 05:12:55;;;;;;;5.30;2.50;;;0.00;99.90;;;;;;5034914;28;20076;-73
2023/01/18 05:15:20;;;;;;;2.83;2.63;;;0.10;99.90;;;;;;5034284;28;20116;-73
2023/01/18 05:17:46;;;;;;;7.35;0.50;;;-0.10;99.90;;;;;;5034758;28;20045;-73
2023/01/18 05:20:12;;;;;;;0.20;0.20;;;0.10;99.90;;;;;;5034142;28;20037;-73
2023/01/18 05:22:38;;;;;;;0.60;0.60;;;0.00;99.90;;;;;;5034485;28;20048;-73
2023/01/18 05:25:05;;;;;;;0.55;0.55;;;-0.10;99.90;;;;;;5033676;28;20045;-73
2023/01/18 05:27:31;;;;;;;1.75;1.65;;;0.00;99.90;;;;;;5034448;28;20048;-73
2023/01/18 05:29:58;;;;;;;0.80;0.80;;;0.10;99.90;;;;;;5034457;28;20049;-73
2023/01/18 05:32:24;;;;;;;0.32;0.32;;;0.00;99.90;;;;;;5034156;28;20029;-73
2023/01/18 05:34:50;;;;;;;1.75;0.73;;;0.10;99.90;;;;;;5034729;28;20541;-73
2023/01/18 05:37:15;;;;;;;0.13;0.13;;;0.10;99.90;;;;;;5034254;28;20466;-72
2023/01/18 05:39:41;;;;;;;7.10;1.30;;;0.10;99.90;;;;;;5032896;28;20445;-73
2023/01/18 05:42:07;;;;;;;1.38;1.38;;;0.10;99.90;;;;;;5034078;28;20374;-74
2023/01/18 05:44:33;;;;;;;1.35;1.35;;;0.40;99.90;;;;;;5034008;28;20128;-74
2023/01/18 05:46:59;;;;;;;1.92;1.83;;;0.30;99.90;;;;;;5033238;28;20390;-74
2023/01/18 05:49:27;;;;;;;6.22;2.85;;;0.20;99.90;;;;;;5032992;28;20436;-75
2023/01/18 05:51:53;;;;;;;5.03;3.33;;;-0.20;99.90;;;;;;5033619;28;20033;-74
2023/01/18 05:54:18;;;;;;;3.72;3.13;;;-0.10;99.90;;;;;;5033733;28;20021;-74
2023/01/18 05:56:44;;;;;;;0.30;0.30;;;-0.10;99.90;;;;;;5032518;28;20425;-73
2023/01/18 05:59:10;;;;;;;2.30;1.85;;;-0.30;99.90;;;;;;5033722;28;20482;-72
2023/01/18 06:01:36;;;;;;;0.10;0.10;;;-0.20;99.90;;;;;;5033718;28;20037;-73
2023/01/18 06:04:02;;;;;;;4.93;3.05;;;-0.30;99.90;;;;;;5032580;28;20061;-73
2023/01/18 06:06:27;;;;;;;0.38;0.38;;;-0.50;99.90;;;;;;5033070;28;20112;-72
2023/01/18 06:08:54;;;;;;;9.48;3.50;;;-0.40;99.90;;;;;;5033661;28;20462;-73
2023/01/18 06:11:19;;;;;;;8.38;4.15;;;-0.30;99.90;;;;;;5033411;28;20039;-73
2023/01/18 06:13:45;;;;;;;0.20;0.20;;;-0.30;99.90;;;;;;5033464;28;20025;-73
2023/01/18 06:16:11;;;;;;;0.10;0.10;;;-0.20;99.90;;;;;;5033388;28;20478;-73
2023/01/18 06:18:38;;;;;;;0.15;0.15;;;-0.10;99.90;;;;;;5033156;28;20108;-73
2023/01/18 06:21:04;;;;;;;0.20;0.20;;;0.10;99.90;;;;;;5031726;28;20045;-73
2023/01/18 06:23:30;;;;;;;3.15;2.47;;;0.00;99.90;;;;;;5033247;28;20029;-73
2023/01/18 06:25:56;;;;;;;4.57;1.85;;;0.20;99.90;;;;;;5032185;28;20494;-73
2023/01/18 06:28:22;;;;;;;0.20;0.20;;;0.30;99.90;;;;;;5033272;28;20064;-72
2023/01/18 06:30:52;;;;;;;2.03;0.75;;;0.30;99.90;;;;;;5033004;28;20057;-73
2023/01/18 06:33:18;;;;;;;2.10;1.85;;;-0.10;99.90;;;;;;5033319;28;20033;-73
2023/01/18 06:35:43;;;;;;;1.35;1.25;;;-0.10;99.90;;;;;;5032774;28;20041;-73
2023/01/18 06:38:10;;;;;;;2.58;2.38;;;0.00;99.90;;;;;;5031741;28;20021;-73
2023/01/18 06:40:36;;;;;;;8.15;2.00;;;-0.20;99.90;;;;;;5032799;28;20536;-73
2023/01/18 06:43:02;;;;;;;0.10;0.10;;;-0.30;99.90;;;;;;5032961;28;20033;-72
2023/01/18 06:45:28;;;;;;;1.65;1.55;;;-0.40;99.90;;;;;;5015388;28;20033;-73
2023/01/18 06:47:54;;;;;;;0.30;0.30;;;-0.30;99.90;;;;;;5032941;28;20033;-73
2023/01/18 06:50:20;;;;;;;0.10;0.10;;;-0.20;99.90;;;;;;5031601;28;20045;-73
2023/01/18 06:52:46;;;;;;;1.65;1.20;;;-0.10;99.90;;;;;;5032826;28;20040;-73
2023/01/18 06:55:13;;;;;;;5.18;4.18;;;0.10;99.90;;;;;;5033042;28;20048;-73
2023/01/18 06:57:39;;;;;;;0.17;0.17;;;0.10;99.90;;;;;;5032154;28;20449;-72
2023/01/18 07:00:07;;;;;;;0.73;0.73;;;0.00;99.90;;;;;;5032296;28;20056;-72
2023/01/18 07:02:33;;;;;;;8.00;1.38;;;0.10;99.90;;;;;;5032520;28;20095;-73
2023/01/18 07:05:00;;;;;;;1.17;1.15;;;0.30;99.90;;;;;;5032521;28;20029;-73
2023/01/18 07:07:27;;;;;;;0.30;0.30;;;0.50;99.90;;;;;;5032509;28;20057;-72
2023/01/18 07:09:53;;;;;;;11.30;4.55;;;0.30;99.90;;;;;;5031443;28;20021;-74
2023/01/18 07:12:20;;;;;;;0.50;0.50;;;0.40;99.90;;;;;;5032828;28;20021;-73
2023/01/18 07:14:46;;;;;;;4.95;2.00;;;0.30;99.90;;;;;;5032400;28;20065;-73
2023/01/18 07:17:12;;;;;;;0.30;0.30;;;-0.10;99.90;;;;;;5026752;28;20054;-73
2023/01/18 07:19:37;;;;;;;3.17;2.40;;;-0.20;99.90;;;;;;5004566;28;20496;-73
2023/01/18 07:22:04;;;;;;;2.22;2.05;;;-0.30;99.90;;;;;;5010837;28;20037;-73
2023/01/18 07:24:29;;;;;;;1.75;1.65;;;-0.40;99.90;;;;;;5008415;28;20046;-74
2023/01/18 07:26:58;;;;;;;2.72;1.98;;;-0.30;99.90;;;;;;4997069;28;20032;-74
2023/01/18 07:29:24;;;;;;;2.17;1.77;;;-0.30;99.90;;;;;;5011913;28;20075;-75
2023/01/18 07:31:50;;;;;;;3.00;2.42;;;-0.30;99.90;;;;;;5011798;28;20113;-74
2023/01/18 07:34:16;;;;;;;4.25;3.88;;;-0.20;99.90;;;;;;5010399;28;20590;-74
2023/01/18 07:36:43;;;;;;;5.18;3.05;;;-0.10;99.90;;;;;;5011557;28;20034;-74
2023/01/18 07:39:09;;;;;;;4.63;3.13;;;-0.30;99.90;;;;;;5007471;28;20099;-74
2023/01/18 07:41:36;;;;;;;1.30;0.80;;;-0.30;99.90;;;;;;5009711;28;20114;-74
2023/01/18 07:44:02;;;;;;;0.40;0.40;;;-0.30;99.90;;;;;;5010733;28;20022;-75
2023/01/18 07:46:27;;;;;;;0.63;0.63;;;-0.20;99.90;;;;;;5011878;28;20476;-73
2023/01/18 07:48:53;;;;;;;8.20;3.17;;;0.00;99.90;;;;;;5010944;28;20036;-75
2023/01/18 07:51:23;;;;;;;0.30;0.30;;;0.00;99.90;;;;;;5011723;28;20117;-76
2023/01/18 07:53:53;;;;;;;0.63;0.63;;;0.10;99.90;;;;;;5011136;28;20053;-75
2023/01/18 07:56:19;;;;;;;0.17;0.17;;;0.20;99.90;;;;;;5010973;28;20057;-73
2023/01/18 07:58:46;;;;;;;0.50;0.50;;;0.20;99.90;;;;;;5010822;28;20018;-75
2023/01/18 08:01:14;;;;;;;0.85;0.85;;;0.30;99.90;;;;;;5009984;28;20038;-75
2023/01/18 08:03:44;;;;;;;0.90;0.90;;;0.40;99.90;;;;;;5011051;28;20120;-75
2023/01/18 08:06:15;;;;;;;2.22;2.05;;;0.40;99.90;;;;;;5011540;28;20057;-75
2023/01/18 08:08:42;;;;;;;0.68;0.68;;;0.60;99.90;;;;;;5015782;28;20029;-73
2023/01/18 08:11:09;;;;;;;0.93;0.85;;;0.50;99.90;;;;;;5021567;28;20462;-72
2023/01/18 08:13:35;;;;;;;4.50;3.45;;;0.20;99.90;;;;;;5033266;28;20037;-72
2023/01/18 08:16:03;;;;;;;0.15;0.15;;;0.00;99.90;;;;;;5034419;28;20092;-73
2023/01/18 08:18:29;;;;;;;0.98;0.98;;;0.20;99.90;;;;;;5035047;28;20037;-73
2023/01/18 08:20:56;;;;;;;1.00;0.93;;;0.20;99.90;;;;;;5035726;28;20029;-75
2023/01/18 08:23:22;;;;;;;0.40;0.40;;;0.10;99.90;;;;;;5034808;28;20451;-75
2023/01/18 08:25:48;;;;;;;2.70;1.75;;;0.30;99.90;;;;;;5035537;28;20033;-75
2023/01/18 08:28:14;;;;;;;0.95;0.95;;;0.10;99.90;;;;;;5035628;28;20117;-76
2023/01/18 08:30:45;;;;;;;2.90;0.95;;;0.00;99.90;;;;;;5033145;28;20486;-76
2023/01/18 08:33:11;;;;;;;1.50;1.40;;;0.10;99.90;;;;;;5035308;28;20042;-75
2023/01/18 08:35:43;;;;;;;9.55;3.63;;;0.20;99.90;;;;;;5010235;28;20021;-76
2023/01/18 08:38:09;;;;;;;6.25;3.53;;;0.10;99.90;;;;;;5019597;28;20102;-76
2023/01/18 08:40:35;;;;;;;2.17;2.03;;;0.10;99.90;;;;;;5014164;28;20558;-75
2023/01/18 08:43:03;;;;;;;2.70;1.65;;;0.30;99.90;;;;;;5014524;28;20109;-75
2023/01/18 08:45:29;;;;;;;0.45;0.43;;;0.40;99.90;;;;;;5014705;28;20053;-76
2023/01/18 08:48:09;;;;;;;2.80;1.75;;;0.40;99.90;;;;;;5012709;28;20030;-76
2023/01/18 08:50:35;;;;;;;1.75;1.65;;;0.50;99.90;;;;;;5012834;28;20065;-76
2023/01/18 08:53:02;;;;;;;3.53;3.30;;;0.50;99.90;;;;;;5014963;28;20026;-75
2023/01/18 08:55:28;;;;;;;7.13;2.53;;;0.50;99.90;;;;;;5010617;28;20108;-73
2023/01/18 08:57:56;;;;;;;35.25;5.82;;;0.50;99.90;;;;;;5013103;28;20050;-73
2023/01/18 09:00:23;;;;;;;0.50;0.50;;;0.40;99.90;;;;;;5005700;28;20142;-73
2023/01/18 09:02:49;;;;;;;2.65;1.00;;;0.40;99.90;;;;;;5009682;28;20113;-73
2023/01/18 09:05:15;;;;;;;11.65;5.03;;;0.70;99.90;;;;;;5013937;28;20065;-73
2023/01/18 09:07:43;;;;;;;8.27;3.33;;;0.60;99.90;;;;;;5014201;28;20030;-73
2023/01/18 09:10:10;;;;;;;4.32;2.45;;;0.70;99.90;;;;;;5027277;28;20034;-73
2023/01/18 09:12:35;;;;;;;1.80;1.70;;;0.80;99.90;;;;;;5030142;28;20087;-73
2023/01/18 09:15:01;;;;;;;4.43;3.47;;;0.90;99.90;;;;;;5029615;28;20033;-73
2023/01/18 09:17:27;;;;;;;0.98;0.95;;;1.00;99.90;;;;;;5014172;28;20029;-73
2023/01/18 09:19:53;;;;;;;0.28;0.28;;;1.20;99.90;;;;;;5009450;28;20529;-73
2023/01/18 09:22:20;;;;;;;5.30;4.40;;;1.30;99.90;;;;;;5012362;28;20029;-73
2023/01/18 09:24:45;;;;;;;4.10;1.85;;;1.40;99.90;;;;;;5012593;28;20037;-73
2023/01/18 09:27:12;;;;;;;6.80;4.43;;;1.50;99.90;;;;;;5012167;28;20049;-73
2023/01/18 09:29:39;;;;;;;1.58;1.48;;;1.40;99.90;;;;;;5013729;28;20033;-73
2023/01/18 09:32:07;;;;;;;1.55;1.25;;;1.70;99.90;;;;;;5013135;28;20088;-73
2023/01/18 09:34:34;;;;;;;5.20;2.53;;;2.00;99.90;;;;;;5007793;28;20038;-73
2023/01/18 09:37:00;;;;;;;5.20;3.30;;;2.00;99.90;;;;;;5010665;28;20030;-73
2023/01/18 09:39:26;;;;;;;4.72;2.67;;;2.10;99.90;;;;;;5013556;28;20121;-73
2023/01/18 09:41:57;;;;;;;3.28;1.83;;;2.10;99.90;;;;;;5013520;28;20037;-73
2023/01/18 09:44:31;;;;;;;9.50;3.80;;;2.30;99.90;;;;;;5012828;28;20092;-73
2023/01/18 09:47:14;;;;;;;3.88;2.25;;;2.50;99.90;;;;;;5013385;28;20041;-73
2023/01/18 09:49:51;;;;;;;2.75;1.73;;;2.70;99.90;;;;;;5008189;28;20033;-73
2023/01/18 09:52:46;;;;;;;3.22;1.42;;;2.70;99.90;;;;;;5010567;28;20044;-73
2023/01/18 09:55:36;;;;;;;0.30;0.30;;;2.90;99.90;;;;;;5010161;28;20030;-73
2023/01/18 09:58:23;;;;;;;2.35;1.35;;;2.90;99.90;;;;;;5008975;28;20052;-73
2023/01/18 10:00:49;;;;;;;1.77;1.67;;;3.10;99.90;;;;;;5013130;28;20513;-73
2023/01/18 10:03:57;;;;;;;3.40;1.83;;;3.50;99.90;;;;;;5013080;28;20026;-73
2023/01/18 10:06:45;;;;;;;0.55;0.55;;;3.50;99.90;;;;;;5006804;28;20038;-73
2023/01/18 10:09:39;;;;;;;2.67;2.15;;;4.10;99.90;;;;;;5012444;28;20037;-74
2023/01/18 10:12:20;;;;;;;6.22;1.73;;;4.00;99.90;;;;;;5003754;28;20048;-74
2023/01/18 10:14:58;;;;;;;1.43;1.10;;;3.90;99.90;;;;;;5027406;28;20116;-73
2023/01/18 10:17:48;;;;;;;0.13;0.13;;;4.10;99.90;;;;;;5014932;28;20057;-74
2023/01/18 10:20:27;;;;;;;7.55;4.35;;;3.90;99.90;;;;;;5020934;28;20091;-73
2023/01/18 10:23:14;;;;;;;0.22;0.22;;;3.90;99.90;;;;;;5021657;28;20128;-74
2023/01/18 10:25:53;;;;;;;5.95;2.67;;;4.00;99.90;;;;;;5000056;28;20490;-73
2023/01/18 10:28:40;;;;;;;0.55;0.55;;;4.30;99.90;;;;;;5014232;28;20402;-74
2023/01/18 10:31:43;;;;;;;8.60;1.52;;;4.60;99.90;;;;;;5022461;28;20036;-74
2023/01/18 10:34:41;;;;;;;2.05;0.73;;;4.90;99.90;;;;;;5006053;28;20030;-73
2023/01/18 10:37:43;;;;;;;4.90;1.65;;;5.00;99.90;;;;;;5019405;28;20053;-74
2023/01/18 10:40:12;;;;;;;2.35;1.85;;;5.20;99.90;;;;;;5013110;28;20038;-74
2023/01/18 10:42:52;;;;;;;6.80;2.20;;;5.20;99.90;;;;;;5012619;28;20478;-74
2023/01/18 10:45:22;;;;;;;6.43;2.85;;;5.40;99.90;;;;;;5022070;28;20129;-74
2023/01/18 10:47:49;;;;;;;8.23;2.38;;;5.10;99.90;;;;;;5031715;28;20060;-74
2023/01/18 10:50:31;;;;;;;2.42;2.22;;;5.20;99.90;;;;;;5017676;28;20033;-74
2023/01/18 10:52:57;;;;;;;8.35;2.22;;;5.40;99.90;;;;;;5014763;28;20041;-74
2023/01/18 10:55:23;;;;;;;3.75;1.60;;;5.30;99.90;;;;;;5007798;28;20010;-74
2023/01/18 10:57:53;;;;;;;2.28;0.68;;;5.70;99.90;;;;;;5023062;28;20113;-74
2023/01/18 11:00:31;;;;;;;9.95;2.50;;;6.20;99.90;;;;;;5010726;28;20046;-74
2023/01/18 11:02:58;;;;;;;1.23;0.93;;;6.00;99.90;;;;;;5018906;28;20083;-74
2023/01/18 11:05:32;;;;;;;4.70;1.55;;;5.90;99.90;;;;;;5019620;28;20026;-74
2023/01/18 11:08:26;;;;;;;1.20;1.10;;;6.10;99.90;;;;;;5007041;28;20096;-74
2023/01/18 11:12:32;;;;;;;1.15;1.05;;;5.90;99.90;;;;;;5026368;28;20142;-74
2023/01/18 11:14:27;;;;;;;2.85;2.05;;;6.30;99.90;;;;;;5012619;28;20925;-74
2023/01/18 11:17:10;;;;;;;6.15;3.10;;;6.10;99.90;;;;;;5006139;28;20021;-75
2023/01/18 11:19:37;;;;;;;1.60;1.30;;;6.00;99.90;;;;;;5004333;28;20059;-75
2023/01/18 11:22:11;;;;;;;3.10;1.50;;;5.70;99.90;;;;;;5022857;28;20033;-75
2023/01/18 11:24:37;;;;;;;7.30;2.38;;;6.20;99.90;;;;;;5029712;28;20041;-76
2023/01/18 11:27:11;;;;;;;0.30;0.30;;;6.30;99.90;;;;;;5016945;28;20026;-75
2023/01/18 11:29:42;;;;;;;4.50;1.58;;;6.70;99.90;;;;;;5016873;28;20041;-76
2023/01/18 11:32:28;;;;;;;8.68;4.22;;;6.70;99.90;;;;;;5020472;28;20492;-76
2023/01/18 11:34:57;;;;;;;6.82;2.80;;;6.80;99.90;;;;;;5019842;28;20426;-75
2023/01/18 11:37:23;;;;;;;1.63;1.23;;;6.40;99.90;;;;;;5026208;28;20018;-76
2023/01/18 11:39:48;;;;;;;2.20;1.73;;;6.90;99.90;;;;;;5010480;28;20030;-75
2023/01/18 11:42:26;;;;;;;8.73;2.60;;;7.20;99.90;;;;;;5005360;28;20478;-76
2023/01/18 11:45:03;;;;;;;3.35;2.03;;;7.20;99.90;;;;;;5023112;28;20021;-75
2023/01/18 11:47:47;;;;;;;15.57;1.20;;;7.30;99.90;;;;;;5025919;28;20125;-75
2023/01/18 11:50:38;;;;;;;9.07;2.05;;;7.20;99.90;;;;;;5014950;28;20041;-73
2023/01/18 11:53:10;;;;;;;4.10;2.28;;;7.00;99.90;;;;;;5019227;28;20025;-73
2023/01/18 11:56:04;;;;;;;4.90;1.13;;;6.90;99.90;;;;;;5018681;28;20034;-73
2023/01/18 11:58:33;;;;;;;1.50;1.23;;;7.40;99.90;;;;;;5032377;28;20045;-73
2023/01/18 12:01:27;;;;;;;4.10;2.30;;;7.50;99.90;;;;;;5020978;28;20040;-73
2023/01/18 12:04:10;;;;;;;0.73;0.73;;;7.90;99.90;;;;;;5019509;28;20053;-73
2023/01/18 12:06:42;;;;;;;0.80;0.77;;;8.20;99.90;;;;;;5015031;28;20569;-73
2023/01/18 12:09:28;;;;;;;;;;;7.70;99.90;;;;;;5029323;28;20041;-73
2023/01/18 12:12:12;;;;;;;2.53;1.67;;;7.90;99.90;;;;;;5031533;28;20273;-73
2023/01/18 12:14:44;;;;;;;0.65;0.57;;;7.90;99.90;;;;;;5034156;28;20124;-73
2023/01/18 12:17:25;;;;;;;3.05;1.15;;;7.70;99.90;;;;;;5033643;28;20030;-73
2023/01/18 12:20:19;;;;;;;2.22;0.75;;;7.80;99.90;;;;;;5034782;28;20079;-72
2023/01/18 12:22:57;;;;;;;1.90;1.10;;;7.80;99.90;;;;;;5035339;28;20528;-73
2023/01/18 12:26:01;;;;;;;0.73;0.68;;;7.90;99.90;;;;;;5034511;28;20029;-73
2023/01/18 12:28:43;;;;;;;8.35;2.05;;;7.50;99.90;;;;;;4993780;28;20038;-73
2023/01/18 12:31:28;;;;;;;4.15;1.48;;;8.20;99.90;;;;;;5031483;28;20041;-73
2023/01/18 12:34:09;;;;;;;7.07;2.08;;;7.90;99.90;;;;;;5033606;28;20086;-73
2023/01/18 12:36:51;;;;;;;0.38;0.38;;;7.90;99.90;;;;;;5013722;28;20410;-73
2023/01/18 12:39:35;;;;;;;3.63;2.17;;;8.00;99.90;;;;;;5013617;28;20363;-73
2023/01/18 12:42:09;;;;;;;6.55;1.30;;;7.60;99.90;;;;;;5009441;28;20044;-73
2023/01/18 12:44:54;;;;;;;9.10;2.03;;;7.70;99.90;;;;;;5014494;28;20034;-73
2023/01/18 12:47:33;;;;;;;2.35;1.52;;;7.40;99.90;;;;;;5014608;28;20088;-73
2023/01/18 12:50:05;;;;;;;5.28;1.60;;;7.90;99.90;;;;;;5014209;28;20026;-73
2023/01/18 12:52:44;;;;;;;0.28;0.28;;;8.70;99.90;;;;;;5014078;28;20061;-73
2023/01/18 12:55:16;;;;;;;6.03;3.65;;;8.30;99.90;;;;;;5014459;28;20030;-73
2023/01/18 12:57:43;;;;;;;7.85;2.50;;;8.20;99.90;;;;;;5014996;28;20386;-73
2023/01/18 13:00:23;;;;;;;2.05;1.88;;;9.00;99.90;;;;;;5014869;28;20034;-74
2023/01/18 13:02:54;;;;;;;10.18;3.42;;;8.40;99.90;;;;;;5015044;28;20106;-73
2023/01/18 13:05:49;;;;;;;0.83;0.77;;;8.30;99.90;;;;;;5014854;28;20018;-73
2023/01/18 13:08:18;;;;;;;3.03;1.85;;;8.30;99.90;;;;;;5017769;28;20796;-73
2023/01/18 13:10:46;;;;;;;1.13;0.63;;;8.50;99.90;;;;;;5034628;28;20029;-73
2023/01/18 13:13:18;;;;;;;0.10;0.10;;;8.90;99.90;;;;;;5034805;28;20033;-73
2023/01/18 13:16:03;;;;;;;0.55;0.43;;;9.40;99.90;;;;;;5025626;28;20140;-73
2023/01/18 13:18:54;;;;;;;4.20;1.40;;;9.90;99.90;;;;;;5034573;28;20439;-74
2023/01/18 13:21:52;;;;;;;4.05;1.83;;;9.50;99.90;;;;;;5034115;28;20052;-73
2023/01/18 13:24:31;;;;;;;2.20;1.42;;;8.10;99.90;;;;;;5034524;28;20021;-73
2023/01/18 13:27:12;;;;;;;0.50;0.50;;;8.50;99.90;;;;;;5034239;28;20033;-73
2023/01/18 13:29:40;;;;;;;2.47;1.77;;;9.00;99.90;;;;;;5034388;28;20108;-73
2023/01/18 13:32:23;;;;;;;2.20;1.48;;;8.90;99.90;;;;;;5032829;28;20441;-73
2023/01/18 13:35:32;;;;;;;0.82;0.47;;;8.80;99.90;;;;;;5034305;28;20041;-73
2023/01/18 13:38:18;;;;;;;3.65;1.95;;;8.60;99.90;;;;;;5032741;28;20466;-73
2023/01/18 13:41:00;;;;;;;13.60;2.38;;;8.60;99.90;;;;;;5033661;28;20037;-73
2023/01/18 13:43:35;;;;;;;5.22;1.98;;;9.20;99.90;;;;;;5016285;28;20076;-73
2023/01/18 13:46:07;;;;;;;2.92;2.42;;;8.10;99.90;;;;;;5032816;28;20041;-73
2023/01/18 13:48:42;;;;;;;;;;;8.10;99.90;;;;;;5034518;28;20120;-73
2023/01/18 13:51:08;;;;;;;2.95;1.95;;;8.80;99.90;;;;;;5033265;28;19913;-73
2023/01/18 13:53:48;;;;;;;13.75;2.08;;;9.40;99.90;;;;;;5034045;28;20029;-74